Time;durP1;ratioP1;P1;durP2;ratioP2;P2;SDS_P1;SDS_P2;PMS_P1;PMS_P2;Temp;Humidity;BMP_temperature;BMP_pressure;BME280_temperature;BME280_humidity;BME280_pressure;Samples;Min_cycle;Max_cycle;Signal;HPM_P1;HPM_P2
2021/09/17 00:09:04;;;;;;;6.35;2.20;;;;;;;15.82;100.00;100531.06;4983387;28;20527;-79
2021/09/17 00:11:31;;;;;;;6.25;2.17;;;;;;;15.86;100.00;100533.34;4951023;28;20124;-78
2021/09/17 00:14:00;;;;;;;5.47;1.90;;;;;;;15.82;100.00;100523.94;4983513;28;20086;-80
2021/09/17 00:16:27;;;;;;;5.43;1.88;;;;;;;15.61;100.00;100529.16;4979465;28;20082;-78
2021/09/17 00:18:54;;;;;;;8.55;2.10;;;;;;;15.66;100.00;100526.16;4988771;28;20408;-78
2021/09/17 00:21:21;;;;;;;9.00;2.45;;;;;;;15.80;100.00;100525.03;4960507;28;20037;-79
2021/09/17 00:23:49;;;;;;;5.68;2.25;;;;;;;15.83;100.00;100517.66;4982430;28;20110;-78
2021/09/17 00:26:16;;;;;;;9.48;2.78;;;;;;;15.69;100.00;100528.56;4997240;28;20099;-77
2021/09/17 00:28:43;;;;;;;9.23;2.20;;;;;;;15.72;100.00;100519.53;4988401;28;20325;-78
2021/09/17 00:31:10;;;;;;;3.47;1.83;;;;;;;15.75;100.00;100521.91;4980013;28;20118;-78
2021/09/17 00:33:37;;;;;;;8.50;1.98;;;;;;;15.68;100.00;100524.25;4972124;28;20138;-78
2021/09/17 00:36:05;;;;;;;8.35;2.65;;;;;;;15.80;100.00;100515.25;4960616;28;20050;-77
2021/09/17 00:38:32;;;;;;;7.30;2.63;;;;;;;15.79;100.00;100518.88;4989871;28;20046;-79
2021/09/17 00:40:59;;;;;;;6.45;2.60;;;;;;;15.79;100.00;100521.53;4957583;28;20113;-78
2021/09/17 00:43:26;;;;;;;8.85;2.00;;;;;;;15.74;100.00;100518.44;4989811;28;20165;-78
2021/09/17 00:45:54;;;;;;;5.78;2.00;;;;;;;15.69;100.00;100518.81;4946085;28;20125;-78
2021/09/17 00:48:21;;;;;;;7.13;2.17;;;;;;;15.80;100.00;100515.25;4956837;28;20165;-78
2021/09/17 00:50:49;;;;;;;6.30;1.92;;;;;;;15.82;100.00;100505.38;4987088;28;20046;-78
2021/09/17 00:53:16;;;;;;;8.02;2.50;;;;;;;15.81;100.00;100505.50;4971529;28;20133;-79
2021/09/17 00:55:43;;;;;;;4.65;2.05;;;;;;;15.79;100.00;100507.44;4971361;28;20046;-79
2021/09/17 00:58:10;;;;;;;11.63;3.25;;;;;;;15.65;100.00;100512.06;4988721;28;20044;-78
2021/09/17 01:00:37;;;;;;;11.60;3.28;;;;;;;15.67;100.00;100506.66;4975786;28;20065;-79
2021/09/17 01:03:05;;;;;;;11.82;2.72;;;;;;;15.66;100.00;100503.13;4972398;28;20062;-81
2021/09/17 01:05:33;;;;;;;13.05;2.80;;;;;;;15.65;100.00;100504.09;4982942;28;20098;-77
2021/09/17 01:08:01;;;;;;;7.22;2.45;;;;;;;15.75;100.00;100508.66;4990219;28;20390;-78
2021/09/17 01:10:28;;;;;;;5.93;2.00;;;;;;;15.65;100.00;100498.78;4969700;28;20433;-77
2021/09/17 01:12:55;;;;;;;6.82;2.22;;;;;;;15.53;100.00;100498.91;4972906;28;20155;-78
2021/09/17 01:15:23;;;;;;;5.07;1.80;;;;;;;15.48;100.00;100501.94;4973417;28;20078;-78
2021/09/17 01:17:53;;;;;;;8.63;2.35;;;;;;;15.50;100.00;100504.50;4967395;28;20101;-78
2021/09/17 01:20:21;;;;;;;7.57;2.08;;;;;;;15.60;100.00;100498.28;4982849;28;20123;-78
2021/09/17 01:22:49;;;;;;;4.57;2.15;;;;;;;15.61;100.00;100497.31;4973900;28;20138;-79
2021/09/17 01:25:19;;;;;;;6.70;2.90;;;;;;;15.63;100.00;100498.06;4985940;28;20145;-78
2021/09/17 01:27:47;;;;;;;8.38;2.30;;;;;;;15.69;100.00;100499.38;4963306;28;20046;-79
2021/09/17 01:30:16;;;;;;;7.43;2.30;;;;;;;15.61;100.00;100492.00;4970755;28;20042;-78
2021/09/17 01:32:44;;;;;;;4.97;1.83;;;;;;;15.62;100.00;100496.34;4958378;28;20107;-77
2021/09/17 01:35:13;;;;;;;3.80;1.95;;;;;;;15.71;100.00;100486.81;4974730;28;20039;-79
2021/09/17 01:37:40;;;;;;;5.30;2.22;;;;;;;15.57;100.00;100487.94;4972923;28;20341;-79
2021/09/17 01:40:09;;;;;;;6.03;1.73;;;;;;;15.61;100.00;100494.66;4969744;28;20070;-78
2021/09/17 01:42:37;;;;;;;8.27;1.98;;;;;;;15.54;100.00;100490.00;4991280;28;20191;-79
2021/09/17 01:45:06;;;;;;;5.38;2.40;;;;;;;15.61;100.00;100486.72;4983966;28;20355;-79
2021/09/17 01:47:34;;;;;;;8.13;1.90;;;;;;;15.60;100.00;100494.81;4972921;28;20076;-79
2021/09/17 01:50:03;;;;;;;4.93;1.60;;;;;;;15.67;100.00;100493.38;4969058;28;20108;-80
2021/09/17 01:52:30;;;;;;;9.65;2.10;;;;;;;15.73;100.00;100484.91;4972308;28;20561;-80
2021/09/17 01:54:58;;;;;;;2.70;1.55;;;;;;;15.70;100.00;100490.44;4984584;28;20062;-79
2021/09/17 01:57:25;;;;;;;3.53;1.60;;;;;;;15.67;100.00;100493.38;4972396;28;20306;-78
2021/09/17 01:59:53;;;;;;;10.05;1.95;;;;;;;15.63;100.00;100487.44;4957938;28;20129;-78
2021/09/17 02:02:20;;;;;;;5.32;1.85;;;;;;;15.66;100.00;100484.53;4989675;28;20121;-78
2021/09/17 02:04:47;;;;;;;3.63;1.45;;;;;;;15.60;100.00;100485.03;4985695;28;20239;-77
2021/09/17 02:07:15;;;;;;;5.63;2.30;;;;;;;15.53;100.00;100483.00;4987745;28;20046;-77
2021/09/17 02:09:42;;;;;;;6.65;1.83;;;;;;;15.69;100.00;100479.00;4977434;28;20177;-79
2021/09/17 02:12:09;;;;;;;9.98;2.05;;;;;;;15.57;100.00;100484.44;4985711;28;20436;-79
2021/09/17 02:14:38;;;;;;;5.57;1.60;;;;;;;15.43;100.00;100478.44;4967710;28;20106;-79
2021/09/17 02:17:06;;;;;;;5.45;1.63;;;;;;;15.48;100.00;100485.19;4977118;28;20145;-78
2021/09/17 02:19:33;;;;;;;5.97;2.00;;;;;;;15.49;100.00;100482.44;4980691;28;20050;-79
2021/09/17 02:22:00;;;;;;;7.97;1.55;;;;;;;15.35;100.00;100475.56;4967771;28;20057;-79
2021/09/17 02:24:28;;;;;;;5.47;2.20;;;;;;;15.21;100.00;100478.50;4986106;28;20381;-78
2021/09/17 02:26:55;;;;;;;7.05;1.98;;;;;;;15.34;100.00;100473.06;4989596;28;20606;-77
2021/09/17 02:29:22;;;;;;;6.97;1.80;;;;;;;15.40;100.00;100478.72;4967762;28;20169;-79
2021/09/17 02:31:51;;;;;;;7.00;1.85;;;;;;;15.41;100.00;100471.59;4940045;28;20105;-79
2021/09/17 02:34:19;;;;;;;9.88;2.03;;;;;;;15.40;100.00;100476.06;4971143;28;20034;-80
2021/09/17 02:36:46;;;;;;;10.63;2.42;;;;;;;15.37;100.00;100476.28;4990198;28;20115;-78
2021/09/17 02:39:15;;;;;;;5.35;1.85;;;;;;;15.44;100.00;100472.19;4966698;28;20113;-79
2021/09/17 02:41:43;;;;;;;4.68;1.58;;;;;;;15.45;100.00;100473.03;4975256;28;20066;-77
2021/09/17 02:44:10;;;;;;;5.38;1.98;;;;;;;15.48;100.00;100469.25;4978748;28;20130;-78
2021/09/17 02:46:38;;;;;;;9.02;2.72;;;;;;;15.31;100.00;100473.28;4969951;28;20098;-78
2021/09/17 02:49:05;;;;;;;5.53;1.88;;;;;;;15.28;100.00;100465.59;4968593;28;20133;-77
2021/09/17 02:51:32;;;;;;;5.50;2.10;;;;;;;15.29;100.00;100467.28;4982980;28;20039;-77
2021/09/17 02:54:00;;;;;;;7.22;2.22;;;;;;;15.36;100.00;100465.81;4985931;28;20141;-78
2021/09/17 02:56:28;;;;;;;6.63;1.98;;;;;;;15.40;100.00;100456.63;4987499;28;20120;-78
2021/09/17 02:58:55;;;;;;;5.45;1.70;;;;;;;15.36;100.00;100461.34;4985211;28;20047;-78
2021/09/17 03:01:22;;;;;;;6.72;1.88;;;;;;;15.36;100.00;100452.56;4983312;28;20042;-79
2021/09/17 03:03:49;;;;;;;4.63;1.48;;;;;;;15.33;100.00;100456.28;4984918;28;20094;-78
2021/09/17 03:06:18;;;;;;;4.80;1.70;;;;;;;15.38;100.00;100461.22;4956913;28;20488;-77
2021/09/17 03:08:45;;;;;;;8.52;2.13;;;;;;;15.42;100.00;100457.34;4962183;28;20053;-77
2021/09/17 03:11:12;;;;;;;7.00;1.98;;;;;;;15.35;100.00;100451.69;4972475;28;20076;-79
2021/09/17 03:13:39;;;;;;;9.85;1.92;;;;;;;15.33;100.00;100455.47;4969948;28;20046;-78
2021/09/17 03:16:07;;;;;;;7.88;2.30;;;;;;;15.26;100.00;100459.56;4958816;28;20450;-79
2021/09/17 03:18:36;;;;;;;10.25;2.05;;;;;;;14.96;100.00;100454.94;4985394;28;20181;-79
2021/09/17 03:21:03;;;;;;;9.25;2.40;;;;;;;14.63;100.00;100448.69;4982450;28;20427;-77
2021/09/17 03:23:30;;;;;;;5.97;2.22;;;;;;;14.56;100.00;100450.97;4969459;28;20081;-78
2021/09/17 03:25:58;;;;;;;5.55;1.73;;;;;;;14.46;100.00;100452.63;4969049;28;20058;-79
2021/09/17 03:28:25;;;;;;;4.70;1.75;;;;;;;14.64;100.00;100445.09;4984803;28;20341;-79
2021/09/17 03:30:52;;;;;;;5.88;2.13;;;;;;;14.69;100.00;100442.91;4966476;28;20125;-79
2021/09/17 03:33:20;;;;;;;4.85;1.88;;;;;;;14.65;100.00;100444.13;4956098;28;20181;-79
2021/09/17 03:35:47;;;;;;;4.82;2.63;;;;;;;14.63;100.00;100440.72;4952120;28;20054;-79
2021/09/17 03:38:15;;;;;;;6.88;1.90;;;;;;;14.71;100.00;100437.47;4963185;28;20042;-77
2021/09/17 03:40:42;;;;;;;4.35;2.03;;;;;;;14.83;100.00;100439.16;4963990;28;20434;-77
2021/09/17 03:43:09;;;;;;;4.80;2.08;;;;;;;14.80;100.00;100437.59;4988701;28;20050;-80
2021/09/17 03:45:36;;;;;;;6.60;2.20;;;;;;;14.86;100.00;100436.25;4966068;28;20205;-78
2021/09/17 03:48:10;;;;;;;2.88;1.75;;;;;;;14.93;100.00;100437.47;4985194;28;20047;-78
2021/09/17 03:50:38;;;;;;;3.30;1.75;;;;;;;14.88;100.00;100440.47;4990733;28;20058;-78
2021/09/17 03:53:05;;;;;;;6.30;2.45;;;;;;;14.92;100.00;100433.97;4974098;28;20069;-79
2021/09/17 03:55:34;;;;;;;9.65;2.75;;;;;;;14.87;100.00;100435.31;4971319;28;20097;-78
2021/09/17 03:58:02;;;;;;;4.43;1.80;;;;;;;14.87;100.00;100435.31;4974726;28;20058;-78
2021/09/17 04:00:30;;;;;;;6.20;2.35;;;;;;;14.77;100.00;100436.97;4942678;28;20074;-78
2021/09/17 04:02:57;;;;;;;7.03;2.30;;;;;;;14.71;100.00;100435.66;4973737;28;20113;-80
2021/09/17 04:05:25;;;;;;;10.02;2.50;;;;;;;14.77;100.00;100434.34;4987618;28;20236;-78
2021/09/17 04:07:52;;;;;;;8.00;2.25;;;;;;;14.78;100.00;100436.03;4992253;28;20042;-78
2021/09/17 04:10:20;;;;;;;5.38;2.30;;;;;;;14.80;100.00;100439.41;4981877;28;20046;-79
2021/09/17 04:12:47;;;;;;;5.70;2.15;;;;;;;14.82;100.00;100433.03;4991809;28;20541;-77
2021/09/17 04:15:15;;;;;;;6.18;1.60;;;;;;;14.54;100.00;100437.00;4966680;28;20354;-78
2021/09/17 04:17:44;;;;;;;6.28;2.17;;;;;;;14.25;100.00;100441.06;4984356;28;20078;-78
2021/09/17 04:20:11;;;;;;;11.43;2.78;;;;;;;14.18;100.00;100441.53;4967024;28;20054;-78
2021/09/17 04:22:39;;;;;;;4.50;1.98;;;;;;;13.90;100.00;100441.94;4970786;28;20133;-79
2021/09/17 04:25:07;;;;;;;3.80;1.65;;;;;;;14.00;100.00;100437.63;4981627;28;20519;-79
2021/09/17 04:27:35;;;;;;;5.78;2.13;;;;;;;14.01;100.00;100436.69;4987365;28;20534;-79
2021/09/17 04:30:04;;;;;;;5.93;1.83;;;;;;;14.02;100.00;100438.38;4986189;28;20038;-78
2021/09/17 04:32:32;;;;;;;8.88;2.50;;;;;;;13.98;100.00;100439.56;4985451;28;20054;-78
2021/09/17 04:35:00;;;;;;;5.53;1.70;;;;;;;14.06;100.00;100441.63;4986011;28;20270;-80
2021/09/17 04:37:27;;;;;;;4.13;1.67;;;;;;;14.06;100.00;100447.75;4971434;28;20047;-80
2021/09/17 04:39:55;;;;;;;6.80;1.88;;;;;;;14.13;100.00;100446.31;4975412;28;20465;-78
2021/09/17 04:42:22;;;;;;;7.25;2.65;;;;;;;14.11;100.00;100444.75;4970653;28;20140;-77
2021/09/17 04:44:49;;;;;;;6.57;2.00;;;;;;;14.26;100.00;100445.38;4987201;28;20497;-80
2021/09/17 04:47:17;;;;;;;5.40;2.00;;;;;;;14.17;100.00;100445.13;4954564;28;20081;-80
2021/09/17 04:49:44;;;;;;;3.58;1.88;;;;;;;14.23;100.00;100453.53;4971091;28;20051;-79
2021/09/17 04:52:11;;;;;;;7.35;3.28;;;;;;;14.18;100.00;100462.72;4990639;28;20043;-77
2021/09/17 04:54:38;;;;;;;7.82;2.42;;;;;;;14.17;100.00;100453.06;4985890;28;20043;-79
2021/09/17 04:57:05;;;;;;;9.60;2.53;;;;;;;14.21;100.00;100458.13;4991818;28;20042;-79
2021/09/17 04:59:33;;;;;;;6.20;2.33;;;;;;;14.22;100.00;100454.50;4965977;28;20050;-78
2021/09/17 05:02:00;;;;;;;8.50;2.30;;;;;;;14.37;100.00;100456.84;4967346;28;20309;-79
2021/09/17 05:04:31;;;;;;;6.78;2.25;;;;;;;14.47;100.00;100458.78;4968483;28;20054;-79
2021/09/17 05:06:58;;;;;;;2.72;1.55;;;;;;;14.49;100.00;100456.88;5003683;28;20054;-79
2021/09/17 05:09:26;;;;;;;8.15;1.67;;;;;;;14.38;100.00;100455.88;4962545;28;20497;-79
2021/09/17 05:11:53;;;;;;;4.13;1.52;;;;;;;14.39;100.00;100448.75;4973022;28;20185;-79
2021/09/17 05:14:21;;;;;;;6.82;2.13;;;;;;;14.34;100.00;100446.47;4949424;28;20051;-78
2021/09/17 05:16:49;;;;;;;6.70;1.58;;;;;;;14.44;100.00;100454.53;4969353;28;20069;-79
2021/09/17 05:19:18;;;;;;;6.07;1.17;;;;;;;14.50;100.00;100450.59;4949798;28;20117;-80
2021/09/17 05:21:45;;;;;;;5.03;1.33;;;;;;;14.49;100.00;100455.06;5000730;28;20171;-78
2021/09/17 05:24:13;;;;;;;6.50;1.40;;;;;;;14.35;100.00;100449.97;4986521;28;20485;-78
2021/09/17 05:26:41;;;;;;;6.47;2.20;;;;;;;14.39;100.00;100462.00;4971636;28;20042;-78
2021/09/17 05:29:09;;;;;;;7.97;2.05;;;;;;;14.41;100.00;100462.75;4969216;28;20055;-79
2021/09/17 05:31:36;;;;;;;5.82;1.40;;;;;;;14.47;100.00;100461.41;4969890;28;20484;-77
2021/09/17 05:34:03;;;;;;;3.30;1.30;;;;;;;14.37;100.00;100462.13;4969843;28;20470;-80
2021/09/17 05:36:31;;;;;;;3.75;1.38;;;;;;;14.26;100.00;100461.25;4953862;28;20411;-79
2021/09/17 05:38:58;;;;;;;9.05;1.05;;;;;;;14.51;100.00;100463.75;4989968;28;20038;-81
2021/09/17 05:41:25;;;;;;;4.72;1.40;;;;;;;14.41;100.00;100468.03;4951058;28;20043;-77
2021/09/17 05:43:53;;;;;;;4.03;1.17;;;;;;;14.49;100.00;100470.94;4970905;28;20057;-79
2021/09/17 05:46:20;;;;;;;5.03;1.00;;;;;;;14.44;100.00;100459.84;4981032;28;20078;-79
2021/09/17 05:48:48;;;;;;;7.18;0.98;;;;;;;14.43;100.00;100466.09;4982145;28;20217;-79
2021/09/17 05:51:15;;;;;;;4.40;1.48;;;;;;;14.38;100.00;100468.28;4990421;28;20350;-80
2021/09/17 05:54:03;;;;;;;3.05;1.20;;;;;;;14.38;100.00;100470.91;4977021;28;20081;-79
2021/09/17 05:56:30;;;;;;;2.97;1.00;;;;;;;14.03;100.00;100468.31;4987894;28;20043;-77
2021/09/17 05:58:57;;;;;;;4.25;0.77;;;;;;;14.08;100.00;100474.09;4971374;28;20035;-80
2021/09/17 06:01:24;;;;;;;6.50;1.30;;;;;;;13.94;100.00;100477.78;4989040;28;20145;-81
2021/09/17 06:03:52;;;;;;;3.53;1.20;;;;;;;13.65;100.00;100480.81;4956437;28;20161;-78
2021/09/17 06:06:20;;;;;;;4.10;1.40;;;;;;;13.64;100.00;100475.63;4986877;28;20102;-79
2021/09/17 06:08:50;;;;;;;8.32;1.20;;;;;;;13.65;100.00;100475.53;4984515;28;20506;-78
2021/09/17 06:11:17;;;;;;;4.85;1.25;;;;;;;13.70;100.00;100484.94;4966026;28;20051;-78
2021/09/17 06:13:45;;;;;;;4.68;0.90;;;;;;;13.74;100.00;100474.00;4987506;28;20044;-78
2021/09/17 06:16:12;;;;;;;3.10;0.95;;;;;;;13.82;100.00;100476.06;4984427;28;20051;-79
2021/09/17 06:18:43;;;;;;;2.55;0.82;;;;;;;13.80;100.00;100472.69;4987066;28;20078;-77
2021/09/17 06:21:10;;;;;;;8.63;0.80;;;;;;;13.80;100.00;100470.88;4985207;28;20105;-80
2021/09/17 06:23:41;;;;;;;4.57;0.95;;;;;;;13.82;100.00;100476.06;4970057;28;20104;-78
2021/09/17 06:26:09;;;;;;;3.92;1.15;;;;;;;13.90;100.00;100476.34;4951147;28;20477;-78
2021/09/17 06:28:36;;;;;;;2.20;0.68;;;;;;;13.84;100.00;100471.50;4985872;28;20509;-77
2021/09/17 06:31:04;;;;;;;3.75;1.10;;;;;;;13.77;100.00;100491.44;4974358;28;20076;-81
2021/09/17 06:33:31;;;;;;;5.57;1.20;;;;;;;13.92;100.00;100480.56;4969413;28;20184;-79
2021/09/17 06:36:07;;;;;;;;;;;;;;;13.96;100.00;100486.47;5071841;28;21204;-66
2021/09/17 06:38:34;;;;;;;3.83;0.80;;;;;;;14.09;100.00;100483.72;5070994;28;20000;-65
2021/09/17 06:41:01;;;;;;;7.05;1.40;;;;;;;14.13;100.00;100485.19;5069504;28;20082;-66
2021/09/17 06:43:29;;;;;;;6.18;1.00;;;;;;;14.21;100.00;100477.50;5060728;28;20077;-68
2021/09/17 06:45:59;;;;;;;8.10;1.00;;;;;;;14.40;100.00;100476.94;5069657;28;20580;-67
2021/09/17 06:48:26;;;;;;;2.33;0.68;;;;;;;14.72;100.00;100478.91;5065799;28;20066;-66
2021/09/17 06:50:53;;;;;;;3.53;1.20;;;;;;;14.70;97.73;100479.03;5048531;28;20446;-66
2021/09/17 06:53:21;;;;;;;6.25;1.30;;;;;;;14.78;98.38;100478.44;5065267;28;20084;-65
2021/09/17 06:55:48;;;;;;;5.93;1.20;;;;;;;14.97;97.69;100481.31;5061042;28;20473;-65
2021/09/17 06:58:16;;;;;;;4.20;1.10;;;;;;;14.77;97.42;100479.38;5059675;28;20422;-65
2021/09/17 07:00:43;;;;;;;5.57;0.80;;;;;;;15.09;95.14;100474.19;5055996;28;20110;-66
2021/09/17 07:03:11;;;;;;;1.35;0.80;;;;;;;14.71;94.78;100483.38;5056076;28;20164;-65
2021/09/17 07:05:39;;;;;;;3.63;0.65;;;;;;;15.07;93.02;100476.97;5056256;28;20060;-66
2021/09/17 07:08:08;;;;;;;5.47;1.10;;;;;;;15.12;91.55;100482.72;5060650;28;20148;-68
2021/09/17 07:10:37;;;;;;;4.65;0.80;;;;;;;15.11;92.03;100489.00;5057501;28;20134;-68
2021/09/17 07:13:05;;;;;;;3.28;0.88;;;;;;;15.33;91.35;100484.63;5053574;28;20068;-67
2021/09/17 07:15:32;;;;;;;4.20;0.88;;;;;;;15.36;90.74;100495.00;5042022;28;20040;-66
2021/09/17 07:18:03;;;;;;;5.22;0.90;;;;;;;15.53;89.72;100481.19;5056893;28;20471;-66
2021/09/17 07:20:31;;;;;;;3.53;0.73;;;;;;;15.81;87.84;100486.94;5065367;28;20078;-64
2021/09/17 07:22:58;;;;;;;4.00;0.80;;;;;;;15.71;86.53;100481.50;5059644;28;20176;-66
2021/09/17 07:25:25;;;;;;;1.80;0.50;;;;;;;16.03;85.83;100478.84;5066317;22;20050;-62
2021/09/17 07:27:53;;;;;;;2.03;0.93;;;;;;;16.06;84.53;100480.38;5042245;28;20519;-63
2021/09/17 07:30:22;;;;;;;3.13;1.25;;;;;;;16.06;85.99;100480.38;5036725;28;20045;-62
2021/09/17 07:32:50;;;;;;;2.22;0.88;;;;;;;16.11;85.05;100478.19;5038147;28;20125;-63
2021/09/17 07:35:21;;;;;;;3.60;1.45;;;;;;;16.25;85.60;100484.97;5040214;28;20147;-63
2021/09/17 07:37:48;;;;;;;4.40;0.60;;;;;;;15.91;85.14;100485.19;5051781;28;20041;-62
2021/09/17 07:40:15;;;;;;;7.80;0.95;;;;;;;16.09;83.72;100482.78;5041657;28;20422;-61
2021/09/17 07:42:44;;;;;;;2.65;0.95;;;;;;;15.60;86.39;100485.03;5044932;28;20059;-62
2021/09/17 07:45:11;;;;;;;3.63;1.15;;;;;;;15.68;85.30;100485.28;5037917;28;20136;-60
2021/09/17 07:47:39;;;;;;;4.43;0.88;;;;;;;16.17;82.51;100485.66;5026758;28;20108;-63
2021/09/17 07:50:08;;;;;;;5.15;0.55;;;;;;;16.19;80.49;100481.88;5031269;28;20578;-60
2021/09/17 07:52:35;;;;;;;6.65;1.35;;;;;;;16.25;80.03;100487.63;5032967;28;20119;-63
2021/09/17 07:55:04;;;;;;;4.50;0.65;;;;;;;16.74;78.59;100480.81;5027700;28;20324;-62
2021/09/17 07:57:31;;;;;;;5.53;0.93;;;;;;;16.58;78.26;100486.59;5038599;28;20109;-63
2021/09/17 07:59:58;;;;;;;5.40;0.88;;;;;;;16.89;76.93;100492.78;5023477;28;20107;-63
2021/09/17 08:02:26;;;;;;;4.65;0.73;;;;;;;17.42;73.80;100492.47;5042142;28;20049;-61
2021/09/17 08:04:54;;;;;;;6.20;0.80;;;;;;;17.50;73.23;100491.78;5029914;28;20145;-63
2021/09/17 08:07:22;;;;;;;1.30;0.40;;;;;;;17.24;73.56;100489.63;5035918;28;20085;-63
2021/09/17 08:09:49;;;;;;;3.58;0.80;;;;;;;17.33;72.32;100503.94;5019699;28;20060;-63
2021/09/17 08:12:17;;;;;;;2.25;0.73;;;;;;;17.23;72.10;100498.59;5040231;28;20053;-62
2021/09/17 08:14:44;;;;;;;2.75;0.70;;;;;;;17.11;72.43;100497.03;5024108;28;20132;-61
2021/09/17 08:17:11;;;;;;;3.63;0.90;;;;;;;17.93;69.71;100497.59;5039584;28;20072;-62
2021/09/17 08:19:38;;;;;;;7.07;0.80;;;;;;;17.63;69.51;100495.88;5019340;28;20049;-62
2021/09/17 08:22:05;;;;;;;1.98;0.60;;;;;;;17.81;69.08;100496.06;5031328;28;20065;-61
2021/09/17 08:24:33;;;;;;;3.83;0.40;;;;;;;17.74;69.02;100496.75;5029458;28;20124;-62
2021/09/17 08:27:00;;;;;;;4.70;0.40;;;;;;;17.77;67.72;100501.78;5030096;28;20149;-63
2021/09/17 08:29:28;;;;;;;0.90;0.35;;;;;;;18.08;67.21;100498.00;5031311;28;20056;-62
2021/09/17 08:31:56;;;;;;;1.48;0.40;;;;;;;18.39;66.05;100503.16;5039440;28;20087;-62
2021/09/17 08:34:23;;;;;;;1.38;0.40;;;;;;;18.36;65.82;100498.09;5024197;28;20062;-62
2021/09/17 08:36:50;;;;;;;4.00;0.50;;;;;;;17.91;67.00;100506.69;5045898;28;20068;-62
2021/09/17 08:39:17;;;;;;;5.78;0.55;;;;;;;18.19;65.96;100500.53;5035922;28;20424;-62
2021/09/17 08:41:45;;;;;;;2.78;0.45;;;;;;;18.19;66.11;100505.84;5037636;28;20076;-64
2021/09/17 08:44:13;;;;;;;2.97;0.60;;;;;;;17.73;67.42;100506.53;5025365;28;20476;-64
2021/09/17 08:46:41;;;;;;;1.50;0.40;;;;;;;17.86;67.66;100512.44;5030563;28;20136;-63
2021/09/17 08:49:11;;;;;;;1.90;0.50;;;;;;;17.81;67.60;100524.50;5025746;28;20084;-64
2021/09/17 08:51:38;;;;;;;4.25;0.40;;;;;;;17.96;66.21;100518.59;5027963;28;20609;-62
2021/09/17 08:54:06;;;;;;;2.22;0.50;;;;;;;17.42;67.68;100521.75;5030297;28;20542;-62
2021/09/17 08:56:33;;;;;;;1.60;0.60;;;;;;;17.95;66.49;100530.25;5029882;28;20465;-60
2021/09/17 08:59:00;;;;;;;4.05;0.50;;;;;;;17.98;66.12;100523.81;5023146;28;20058;-63
2021/09/17 09:01:30;;;;;;;2.67;0.50;;;;;;;18.21;65.12;100516.38;5027827;28;20132;-63
2021/09/17 09:04:00;;;;;;;9.25;0.98;;;;;;;17.98;66.13;100522.97;5022111;28;20049;-63
2021/09/17 09:06:34;;;;;;;1.13;0.43;;;;;;;17.79;67.62;100526.47;5025888;28;20060;-61
2021/09/17 09:09:03;;;;;;;1.48;0.38;;;;;;;18.05;66.51;100519.59;5028309;28;20087;-63
2021/09/17 09:11:30;;;;;;;1.90;0.40;;;;;;;17.76;67.00;100530.25;5039199;28;20132;-62
2021/09/17 09:14:03;;;;;;;3.22;0.40;;;;;;;18.27;64.86;100528.28;5042463;28;20056;-63
2021/09/17 09:16:32;;;;;;;3.70;0.80;;;;;;;17.99;66.01;100522.00;5034809;28;20394;-62
2021/09/17 09:19:37;;;;;;;4.22;0.50;;;;;;;17.82;66.69;100531.50;5038954;28;20049;-61
2021/09/17 09:22:07;;;;;;;3.83;0.68;;;;;;;18.19;65.20;100535.16;4963163;28;20081;-62
2021/09/17 09:24:42;;;;;;;1.95;0.70;;;;;;;18.27;65.20;100521.13;5011466;28;20547;-61
2021/09/17 09:27:18;;;;;;;2.53;1.02;;;;;;;18.58;64.26;100519.09;5026346;28;20560;-62
2021/09/17 09:29:47;;;;;;;4.35;0.80;;;;;;;18.15;66.36;100527.59;5025722;28;20224;-62
2021/09/17 09:32:34;;;;;;;2.10;0.65;;;;;;;18.35;65.28;100520.41;5031996;28;20057;-61
2021/09/17 09:35:04;;;;;;;1.92;0.47;;;;;;;18.22;65.47;100532.19;5024055;28;20045;-63
2021/09/17 09:37:35;;;;;;;2.95;0.50;;;;;;;17.77;68.00;100533.75;5031241;28;20103;-62
2021/09/17 09:40:04;;;;;;;2.78;0.30;;;;;;;17.99;66.83;100530.81;5030351;28;20049;-61
2021/09/17 09:42:39;;;;;;;4.95;0.40;;;;;;;17.67;68.93;100531.06;5025960;28;20466;-61
2021/09/17 09:45:16;;;;;;;1.95;0.28;;;;;;;18.22;66.39;100524.22;5019014;28;20144;-61
2021/09/17 09:47:45;;;;;;;2.67;0.40;;;;;;;18.29;66.01;100523.66;5030238;28;20057;-63
2021/09/17 09:50:24;;;;;;;2.47;0.40;;;;;;;17.90;67.02;100532.50;5020329;28;20187;-61
2021/09/17 09:52:54;;;;;;;2.35;0.45;;;;;;;17.54;68.86;100525.97;5036394;28;20131;-63
2021/09/17 09:55:22;;;;;;;2.05;0.50;;;;;;;17.88;68.93;100525.66;5013514;28;20037;-58
2021/09/17 09:57:49;;;;;;;1.67;0.22;;;;;;;18.20;67.02;100520.84;5038663;28;20099;-63
2021/09/17 10:00:17;;;;;;;2.20;0.88;;;;;;;17.49;69.44;100527.38;5034441;28;20131;-62
2021/09/17 10:02:45;;;;;;;0.90;0.40;;;;;;;17.08;71.18;100521.25;5035014;28;20053;-61
2021/09/17 10:05:15;;;;;;;1.30;0.40;;;;;;;17.46;70.63;100529.31;5030982;28;20048;-63
2021/09/17 10:07:43;;;;;;;2.60;0.75;;;;;;;17.93;68.91;100524.25;5035752;28;20088;-65
2021/09/17 10:10:12;;;;;;;5.15;1.23;;;;;;;17.50;70.32;100516.59;5028825;28;20454;-63
2021/09/17 10:12:40;;;;;;;1.73;0.40;;;;;;;17.20;71.31;100531.66;5035786;28;20064;-63
2021/09/17 10:15:09;;;;;;;3.33;0.52;;;;;;;17.58;69.33;100529.22;5026988;28;20134;-63
2021/09/17 10:17:38;;;;;;;2.30;0.65;;;;;;;17.49;70.00;100525.56;5031450;28;20057;-62
2021/09/17 10:20:09;;;;;;;2.40;0.75;;;;;;;17.93;68.83;100534.06;5028308;28;20053;-62
2021/09/17 10:22:41;;;;;;;1.73;0.90;;;;;;;18.06;68.70;100529.28;5028697;28;20573;-62
2021/09/17 10:25:12;;;;;;;1.95;0.70;;;;;;;18.29;67.53;100523.66;5012255;28;20137;-63
2021/09/17 10:28:01;;;;;;;3.10;0.75;;;;;;;17.60;69.74;100532.56;5030511;28;20056;-62
2021/09/17 10:30:30;;;;;;;4.47;0.40;;;;;;;18.20;67.67;100522.69;5021876;28;20160;-59
2021/09/17 10:32:58;;;;;;;5.38;0.70;;;;;;;18.07;67.40;100536.28;5029887;28;20123;-61
2021/09/17 10:35:31;;;;;;;2.78;0.98;;;;;;;17.64;68.72;100533.97;5011581;28;20041;-64
2021/09/17 10:38:15;;;;;;;7.38;2.28;;;;;;;17.53;69.87;100534.13;5035764;28;20136;-62
2021/09/17 10:40:45;;;;;;;8.80;2.38;;;;;;;17.37;70.98;100527.47;5027027;28;20261;-63
2021/09/17 10:43:20;;;;;;;4.15;1.10;;;;;;;17.68;69.17;100530.91;5021705;28;20076;-63
2021/09/17 10:46:20;;;;;;;3.85;1.00;;;;;;;17.72;69.43;100531.47;5024768;28;20057;-61
2021/09/17 10:48:53;;;;;;;2.40;0.60;;;;;;;16.74;73.09;100539.28;5001489;28;20053;-63
2021/09/17 10:51:35;;;;;;;4.03;0.50;;;;;;;16.30;77.09;100539.44;5029821;28;20128;-62
2021/09/17 10:54:04;;;;;;;9.70;1.58;;;;;;;16.77;76.49;100547.00;5021274;28;20072;-63
2021/09/17 10:56:49;;;;;;;1.20;0.57;;;;;;;16.66;77.24;100542.56;5025042;28;20045;-61
2021/09/17 10:59:29;;;;;;;4.68;0.80;;;;;;;16.86;76.30;100547.06;5019191;28;20066;-64
2021/09/17 11:02:03;;;;;;;4.15;0.60;;;;;;;17.39;73.18;100540.69;5037259;28;20054;-62
2021/09/17 11:04:51;;;;;;;;;;;;;;;17.63;70.82;100540.28;5024573;28;20503;-64
2021/09/17 11:07:21;;;;;;;3.67;0.60;;;;;;;17.93;69.44;100544.72;5048773;28;19924;-63
2021/09/17 11:09:50;;;;;;;3.85;0.80;;;;;;;18.17;68.35;100536.28;5039419;28;20080;-62
2021/09/17 11:12:25;;;;;;;1.88;0.50;;;;;;;18.08;67.68;100534.47;5040204;28;20049;-63
2021/09/17 11:14:59;;;;;;;1.48;0.60;;;;;;;17.83;69.09;100534.06;5021241;28;20574;-62
2021/09/17 11:17:49;;;;;;;1.02;0.40;;;;;;;17.67;68.64;100531.88;5028759;28;20052;-63
2021/09/17 11:20:27;;;;;;;1.27;0.45;;;;;;;17.41;69.68;100536.03;5031646;28;20153;-63
2021/09/17 11:23:05;;;;;;;1.63;0.47;;;;;;;17.21;71.85;100536.00;5032847;28;20084;-62
2021/09/17 11:25:39;;;;;;;1.40;0.47;;;;;;;17.63;71.90;100540.28;5025206;28;20049;-64
2021/09/17 11:28:28;;;;;;;3.03;0.70;;;;;;;17.55;71.12;100540.97;5031600;28;20045;-64
2021/09/17 11:31:11;;;;;;;2.05;0.50;;;;;;;17.01;71.11;100534.22;5031752;28;20076;-63
2021/09/17 11:33:38;;;;;;;0.55;0.35;;;;;;;16.90;72.11;100537.84;5028946;28;20057;-62
2021/09/17 11:36:05;;;;;;;1.23;0.65;;;;;;;17.07;72.17;100535.53;5036372;28;20052;-63
2021/09/17 11:38:33;;;;;;;4.28;0.50;;;;;;;17.37;69.85;100529.31;5044223;28;20115;-61